This is the latest recevied weather packets stored in our database for station/object WA6OOO. If no packets are shown the sender has not sent any weather packets the latest 10 day(s).
| Time | Temp. | Humidity | Pressure | Rain* | Wind** | Luminosity | Snow |
|---|---|---|---|---|---|---|---|
| 1787905226 | 23.89° C | 66% | 1013.8 hPa | 0 mm | - | 0 W/m² | - |
| 1787904924 | 24.44° C | 62% | 1014 hPa | 0 mm | - | 0 W/m² | - |
| 1787904621 | 25° C | 64% | 1014 hPa | 0 mm | - | 0 W/m² | - |
| 1787904320 | 25° C | 66% | 1014 hPa | 0 mm | - | 0 W/m² | - |
| 1787904015 | 25.56° C | 63% | 1014 hPa | 0 mm | - | 0 W/m² | - |
| 1787903711 | 25.56° C | 62% | 1013.7 hPa | 0 mm | - | 0 W/m² | - |
| 1787903407 | 26.11° C | 62% | 1013.7 hPa | 0 mm | - | 0 W/m² | - |
| 1787903102 | 26.11° C | 62% | 1013.8 hPa | 0 mm | - | 0 W/m² | - |
| 1787902799 | 26.11° C | 62% | 1013.9 hPa | 0 mm | - | 0 W/m² | - |
| 1787902495 | 25.56° C | 62% | 1013.8 hPa | 0 mm | - | 0 W/m² | - |
| 1787902190 | 25.56° C | 68% | 1013.7 hPa | 0 mm | - | 0 W/m² | - |
| 1787901890 | 26.11° C | 68% | 1013.6 hPa | 0 mm | - | 0 W/m² | - |
| 1787901585 | 26.11° C | 66% | 1013.4 hPa | 0 mm | - | 0 W/m² | - |
| 1787901281 | 26.11° C | 64% | 1013.6 hPa | 0 mm | - | 0 W/m² | - |
| 1787900977 | 27.22° C | 55% | 1013.7 hPa | 0 mm | - | 0 W/m² | - |
| 1787900671 | 27.78° C | 50% | 1013.6 hPa | 0 mm | - | 0 W/m² | - |
| 1787900371 | 27.22° C | 51% | 1013.5 hPa | 0 mm | - | 0 W/m² | - |
| 1787900067 | 26.11° C | 57% | 1013.5 hPa | 0 mm | - | 0 W/m² | - |
| 1787899761 | 26.11° C | 62% | 1013.4 hPa | 0 mm | - | 0 W/m² | - |
| 1787899458 | 25.56° C | 64% | 1013.5 hPa | 0 mm | - | 0 W/m² | - |
| 1787899157 | 25.56° C | 61% | 1013.5 hPa | 0 mm | - | 0 W/m² | - |
| 1787898852 | 26.11° C | 63% | 1013.5 hPa | 0 mm | - | 0 W/m² | - |
| 1787898547 | 26.11° C | 65% | 1013.6 hPa | 0 mm | - | 0 W/m² | - |
| 1787898245 | 26.67° C | 63% | 1013.6 hPa | 0 mm | - | 0 W/m² | - |
| 1787897940 | 26.67° C | 66% | 1013.7 hPa | 0 mm | - | 0 W/m² | - |
* Rain latest hour (hover to see other rain measurements)
** Current wind speed in m/s (hover to see current wind gust speed)